| time (UTC) | temp F | wind direction | speed MPH | gust MPH | rain 1hr in | rain 24hr in | rain mn in | humidity % | barometer mb |
| 20260904161613 | 72 | 26 | 4.0 | 8.0 | 0.00 | 0.00 | 0.00 | 89 | 1013.7 |
| 20260904160107 | 72 | 244 | 0.0 | 3.0 | 0.00 | 0.00 | 0.00 | 91 | 1013.4 |
| 20260904154610 | 71 | 0 | 1.0 | 3.0 | 0.00 | 0.00 | 0.00 | 92 | 1013.2 |
| 20260904153115 | 70 | 294 | 0.0 | 4.0 | 0.00 | 0.00 | 0.00 | 92 | 1013.1 |
| 20260904151609 | 70 | 0 | 0.0 | 4.0 | 0.00 | 0.00 | 0.00 | 93 | 1012.9 |
| 20260904150104 | 69 | 0 | 1.0 | 3.0 | 0.00 | 0.00 | 0.00 | 93 | 1012.8 |
| 20260904144614 | 69 | 0 | 0.0 | 2.0 | 0.00 | 0.00 | 0.00 | 93 | 1012.7 |
| 20260904143121 | 68 | 0 | 1.0 | 3.0 | 0.00 | 0.00 | 0.00 | 93 | 1012.8 |
| 20260904141604 | 68 | 0 | 0.0 | 3.0 | 0.00 | 0.00 | 0.00 | 93 | 1012.6 |
| 20260904140106 | 68 | 5 | 2.0 | 4.0 | 0.00 | 0.00 | 0.00 | 93 | 1012.4 |
| 20260904134604 | 67 | 278 | 1.0 | 4.0 | 0.00 | 0.00 | 0.00 | 93 | 1012.3 |
| 20260904133112 | 67 | 360 | 1.0 | 3.0 | 0.00 | 0.00 | 0.00 | 93 | 1012.2 |
| 20260904131605 | 67 | 11 | 0.0 | 1.0 | 0.00 | 0.00 | 0.00 | 92 | 1012.0 |
| 20260904130109 | 66 | 0 | 0.0 | 0.0 | 0.00 | 0.00 | 0.00 | 92 | 1011.9 |
| 20260904124602 | 66 | 0 | 0.0 | 2.0 | 0.00 | 0.00 | 0.00 | 92 | 1011.7 |
| 20260904123106 | 66 | 0 | 0.0 | 2.0 | 0.00 | 0.00 | 0.00 | 92 | 1011.6 |
| 20260904121607 | 66 | 0 | 0.0 | 1.0 | 0.00 | 0.00 | 0.00 | 91 | 1011.4 |
| 20260904120107 | 66 | 0 | 0.0 | 2.0 | 0.00 | 0.00 | 0.00 | 91 | 1011.3 |
| 20260904114607 | 66 | 44 | 1.0 | 3.0 | 0.00 | 0.00 | 0.00 | 91 | 1011.2 |
| 20260904113103 | 66 | 0 | 0.0 | 2.0 | 0.00 | 0.00 | 0.00 | 91 | 1011.3 |
| 20260904111610 | 66 | 0 | 0.0 | 2.0 | 0.00 | 0.00 | 0.00 | 90 | 1011.5 |
| 20260904110117 | 66 | 0 | 1.0 | 3.0 | 0.00 | 0.00 | 0.00 | 90 | 1011.2 |
| 20260904104607 | 66 | 24 | 0.0 | 4.0 | 0.00 | 0.00 | 0.00 | 90 | 1011.4 |
| 20260904103105 | 66 | 46 | 0.0 | 3.0 | 0.00 | 0.00 | 0.00 | 90 | 1011.2 |
| 20260904101603 | 66 | 44 | 1.0 | 3.0 | 0.00 | 0.00 | 0.00 | 90 | 1011.2 |
| 20260904100103 | 66 | 0 | 1.0 | 4.0 | 0.00 | 0.00 | 0.00 | 90 | 1010.7 |
| 20260904094604 | 66 | 0 | 0.0 | 3.0 | 0.00 | 0.00 | 0.00 | 90 | 1010.7 |
| 20260904093107 | 66 | 40 | 1.0 | 4.0 | 0.00 | 0.00 | 0.00 | 90 | 1010.6 |
| 20260904091605 | 66 | 45 | 1.0 | 4.0 | 0.00 | 0.00 | 0.00 | 89 | 1010.6 |
| 20260904090119 | 66 | 68 | 1.0 | 4.0 | 0.00 | 0.00 | 0.00 | 89 | 1010.5 |
| 20260904084605 | 67 | 35 | 2.0 | 6.0 | 0.00 | 0.00 | 0.00 | 88 | 1010.3 |
| 20260904083104 | 68 | 36 | 2.0 | 7.0 | 0.00 | 0.00 | 0.00 | 88 | 1010.4 |
| 20260904081617 | 69 | 51 | 4.0 | 8.0 | 0.00 | 0.00 | 0.00 | 88 | 1010.3 |
| 20260904080120 | 70 | 30 | 2.0 | 5.0 | 0.00 | 0.00 | 0.00 | 88 | 1010.2 |
| 20260904074619 | 72 | 360 | 4.0 | 8.0 | 0.00 | 0.00 | 0.00 | 90 | 1010.3 |
| 20260904073122 | 72 | 5 | 3.0 | 6.0 | 0.00 | 0.00 | 0.00 | 89 | 1010.3 |
| 20260904071605 | 72 | 0 | 0.0 | 2.0 | 0.00 | 0.00 | 0.00 | 89 | 1009.4 |
| 20260904070123 | 73 | 81 | 0.0 | 1.0 | 0.00 | 0.00 | 0.00 | 88 | 1009.4 |
| 20260904064611 | 73 | 0 | 0.0 | 2.0 | 0.00 | 0.00 | 0.00 | 88 | 1009.5 |
| 20260904063117 | 73 | 0 | 0.0 | 3.0 | 0.00 | 0.00 | 0.00 | 88 | 1009.6 |
| 20260904061604 | 73 | 94 | 0.0 | 2.0 | 0.00 | 0.00 | 0.00 | 87 | 1009.6 |
| 20260904060110 | 73 | 65 | 0.0 | 1.0 | 0.00 | 0.00 | 0.00 | 87 | 1009.6 |
| 20260904054604 | 74 | 0 | 0.0 | 2.0 | 0.00 | 0.00 | 0.00 | 86 | 1009.6 |
| 20260904053130 | 74 | 0 | 0.0 | 4.0 | 0.00 | 0.00 | 0.00 | 86 | 1009.6 |
| 20260904051608 | 74 | 0 | 0.0 | 4.0 | 0.00 | 0.00 | 0.00 | 85 | 1009.4 |
| 20260904050108 | 74 | 54 | 0.0 | 4.0 | 0.00 | 0.00 | 0.00 | 85 | 1009.2 |
| 20260904044614 | 75 | 0 | 2.0 | 5.0 | 0.00 | 0.00 | 0.00 | 83 | 1009.3 |
| 20260904043109 | 76 | 46 | 1.0 | 3.0 | 0.00 | 0.00 | 0.00 | 83 | 1009.1 |
| 20260904041606 | 76 | 0 | 0.0 | 3.0 | 0.00 | 0.00 | 0.00 | 83 | 1009.1 |
| 20260904040110 | 76 | 0 | 0.0 | 2.0 | 0.00 | 0.00 | 0.00 | 82 | 1009.1 |
| 20260904034605 | 76 | 0 | 0.0 | 1.0 | 0.00 | 0.00 | 0.00 | 82 | 1009.0 |
| 20260904033108 | 76 | 0 | 0.0 | 2.0 | 0.00 | 0.00 | 0.00 | 81 | 1009.0 |
| 20260904031608 | 76 | 0 | 0.0 | 2.0 | 0.00 | 0.00 | 0.00 | 81 | 1008.9 |
| 20260904030106 | 77 | 70 | 0.0 | 2.0 | 0.00 | 0.00 | 0.00 | 81 | 1009.0 |
| 20260904024601 | 77 | 83 | 0.0 | 3.0 | 0.00 | 0.00 | 0.00 | 80 | 1009.2 |
| 20260904023106 | 78 | 11 | 1.0 | 2.0 | 0.00 | 0.00 | 0.00 | 78 | 1009.2 |
| 20260904021621 | 79 | 71 | 0.0 | 3.0 | 0.00 | 0.00 | 0.00 | 75 | 1008.9 |
| 20260904020104 | 80 | 38 | 0.0 | 3.0 | 0.00 | 0.00 | 0.00 | 73 | 1009.0 |
| 20260904014608 | 81 | 0 | 0.0 | 2.0 | 0.00 | 0.00 | 0.00 | 71 | 1008.6 |
| 20260904013127 | 82 | 0 | 0.0 | 2.0 | 0.00 | 0.00 | 0.00 | 70 | 1008.6 |
| 20260904011647 | 82 | 0 | 0.0 | 3.0 | 0.00 | 0.00 | 0.00 | 69 | 1008.3 |
| 20260904010106 | 83 | 46 | 0.0 | 3.0 | 0.00 | 0.00 | 0.00 | 68 | 1008.3 |
| 20260904004604 | 83 | 60 | 0.0 | 3.0 | 0.00 | 0.00 | 0.00 | 67 | 1008.1 |
| 20260904003109 | 84 | 61 | 0.0 | 3.0 | 0.00 | 0.00 | 0.00 | 66 | 1008.2 |
| 20260904001609 | 85 | 0 | 1.0 | 6.0 | 0.00 | 0.00 | 0.00 | 66 | 1008.1 |
| 20260904000105 | 85 | 77 | 1.0 | 3.0 | 0.00 | 0.00 | 0.00 | 66 | 1008.1 |
| 20260903234604 | 85 | 0 | 0.0 | 3.0 | 0.00 | 0.00 | 0.00 | 65 | 1008.0 |
| 20260903233112 | 86 | 141 | 1.0 | 6.0 | 0.00 | 0.00 | 0.00 | 65 | 1008.0 |
| 20260903231606 | 86 | 0 | 1.0 | 4.0 | 0.00 | 0.00 | 0.00 | 65 | 1007.8 |
| 20260903230111 | 86 | 98 | 1.0 | 6.0 | 0.00 | 0.00 | 0.00 | 65 | 1007.8 |
| 20260903224614 | 86 | 85 | 1.0 | 6.0 | 0.00 | 0.00 | 0.00 | 64 | 1007.8 |
| 20260903223108 | 87 | 158 | 0.0 | 4.0 | 0.00 | 0.00 | 0.00 | 64 | 1007.8 |
| 20260903221605 | 87 | 0 | 1.0 | 5.0 | 0.00 | 0.00 | 0.00 | 62 | 1007.8 |
| 20260903220105 | 88 | 108 | 1.0 | 5.0 | 0.00 | 0.00 | 0.00 | 60 | 1007.6 |
| 20260903214610 | 88 | 87 | 1.0 | 6.0 | 0.00 | 0.00 | 0.00 | 61 | 1007.8 |
| 20260903213108 | 88 | 135 | 2.0 | 8.0 | 0.00 | 0.00 | 0.00 | 59 | 1007.8 |
| 20260903211618 | 88 | 51 | 2.0 | 7.0 | 0.00 | 0.00 | 0.00 | 58 | 1007.7 |
| 20260903210142 | 89 | 58 | 2.0 | 7.0 | 0.00 | 0.00 | 0.00 | 58 | 1007.6 |
| 20260903204622 | 89 | 50 | 3.0 | 8.0 | 0.00 | 0.00 | 0.00 | 58 | 1007.7 |
| 20260903203108 | 87 | 53 | 2.0 | 6.0 | 0.00 | 0.00 | 0.00 | 60 | 1007.7 |
| 20260903201603 | 88 | 128 | 1.0 | 5.0 | 0.00 | 0.00 | 0.00 | 58 | 1007.6 |
| 20260903200118 | 89 | 127 | 1.0 | 5.0 | 0.00 | 0.00 | 0.00 | 57 | 1007.9 |
| 20260903194609 | 91 | 51 | 2.0 | 5.0 | 0.00 | 0.00 | 0.00 | 55 | 1008.1 |
| 20260903193103 | 91 | 158 | 1.0 | 5.0 | 0.00 | 0.00 | 0.00 | 55 | 1008.2 |
| 20260903191616 | 91 | 53 | 1.0 | 5.0 | 0.00 | 0.00 | 0.00 | 54 | 1008.4 |
| 20260903190110 | 91 | 149 | 1.0 | 6.0 | 0.00 | 0.00 | 0.00 | 54 | 1008.7 |
| 20260903184604 | 92 | 38 | 2.0 | 7.0 | 0.00 | 0.00 | 0.00 | 53 | 1008.7 |
| 20260903183113 | 91 | 323 | 2.0 | 6.0 | 0.00 | 0.00 | 0.00 | 52 | 1008.7 |
| 20260903181601 | 91 | 152 | 1.0 | 7.0 | 0.00 | 0.00 | 0.00 | 52 | 1009.0 |
| 20260903180108 | 91 | 286 | 3.0 | 7.0 | 0.00 | 0.00 | 0.00 | 52 | 1009.2 |
| 20260903174604 | 91 | 136 | 2.0 | 8.0 | 0.00 | 0.00 | 0.00 | 53 | 1009.4 |
| 20260903173109 | 90 | 26 | 2.0 | 8.0 | 0.00 | 0.00 | 0.00 | 52 | 1009.2 |
| 20260903171613 | 89 | 72 | 1.0 | 7.0 | 0.00 | 0.00 | 0.00 | 56 | 1009.5 |
| 20260903170105 | 88 | 78 | 1.0 | 4.0 | 0.00 | 0.00 | 0.00 | 60 | 1009.6 |
| 20260903164603 | 86 | 52 | 1.0 | 6.0 | 0.00 | 0.00 | 0.00 | 63 | 1009.9 |
| 20260903163121 | 85 | 69 | 2.0 | 6.0 | 0.00 | 0.00 | 0.00 | 63 | 1010.1 |